.
WxDataArchive / Data Records for 2011-02-02
2011-02-01 February 2011 2011-02-03

Data Records for Wednesday, 02 February 2011

Time	Temp	Chill	HIndex	Humid	Dewpt	 Wind 	HiWind	WindDir	Rain 	Barom 
-----	----	-----	------	-----	-----	------	------	-------	-----	----- 
00:00	19.9	10.1	19.9	91	17.7	8	14	90	0.00	29.632 
00:05	20.0	10.2	20.0	91	17.8	8	15	90	0.00	29.632 
00:10	20.2	9.8	20.2	91	18.0	9	18	90	0.00	29.632 
00:15	20.2	9.1	20.2	91	18.0	10	19	112	0.00	29.604 
00:20	20.3	9.2	20.3	91	18.1	10	17	90	0.00	29.604 
00:25	20.3	9.9	20.3	91	18.1	9	18	112	0.00	29.604 
00:30	20.3	12.3	20.3	91	18.1	6	15	90	0.00	29.592 
00:35	20.5	11.6	20.5	91	18.3	7	16	112	0.00	29.592 
00:40	20.5	11.6	20.5	91	18.3	7	16	112	0.00	29.592 
00:45	20.5	12.5	20.5	91	18.3	6	14	112	0.00	29.595 
00:50	20.5	12.5	20.5	91	18.3	6	20	90	0.00	29.595 
00:55	20.5	12.5	20.5	91	18.3	6	14	112	0.00	29.595 
01:00	20.6	20.6	20.6	91	18.4	3	10	90	0.00	29.589 
01:05	20.6	20.6	20.6	91	18.4	2	6	90	0.00	29.589 
01:10	20.6	20.6	20.6	91	18.4	3	11	90	0.00	29.589 
01:15	20.6	20.6	20.6	91	18.4	3	10	90	0.00	29.612 
01:20	20.8	20.8	20.8	91	18.6	2	6	90	0.00	29.612 
01:25	20.8	20.8	20.8	91	18.6	3	9	112	0.00	29.612 
01:30	20.8	20.8	20.8	91	18.6	2	7	112	0.00	29.573 
01:35	20.8	13.9	20.8	91	18.6	5	11	90	0.00	29.573 
01:40	21.0	15.4	21.0	91	18.8	4	11	90	0.00	29.573 
01:45	21.0	14.2	21.0	91	18.8	5	14	112	0.00	29.554 
01:50	21.1	14.3	21.1	91	18.9	5	15	90	0.00	29.554 
01:55	21.1	21.1	21.1	91	18.9	3	9	90	0.00	29.554 
02:00	21.1	15.5	21.1	91	18.9	4	12	112	0.00	29.540 
02:05	21.1	15.5	21.1	91	18.9	4	10	112	0.00	29.540 
02:10	21.1	21.1	21.1	91	18.9	3	11	112	0.00	29.540 
02:15	21.1	21.1	21.1	92	19.1	3	12	90	0.00	29.538 
02:20	21.3	21.3	21.3	92	19.3	2	7	112	0.00	29.538 
02:25	21.4	21.4	21.4	92	19.4	2	7	90	0.00	29.538 
02:30	21.6	21.6	21.6	92	19.6	3	8	112	0.00	29.543 
02:35	21.8	21.8	21.8	92	19.8	3	8	68	0.00	29.543 
02:40	21.9	21.9	21.9	92	19.9	1	9	90	0.00	29.543 
02:45	22.1	22.1	22.1	92	20.1	2	5	90	0.00	29.571 
02:50	22.2	22.2	22.2	92	20.2	3	10	45	0.00	29.571 
02:55	22.2	22.2	22.2	92	20.2	1	5	315	0.00	29.571 
03:00	22.4	22.4	22.4	92	20.4	1	6	45	0.00	29.567 
03:05	22.4	22.4	22.4	92	20.4	1	3	90	0.00	29.567 
03:10	22.5	22.5	22.5	92	20.5	2	9	112	0.00	29.567 
03:15	22.7	22.7	22.7	92	20.7	2	5	90	0.00	29.561 
03:20	22.9	22.9	22.9	92	20.9	2	7	90	0.00	29.561 
03:25	23.0	23.0	23.0	92	21.0	0	2	22	0.00	29.561 
03:30	23.2	23.2	23.2	92	21.2	1	3	90	0.00	29.561 
03:35	23.2	23.2	23.2	92	21.2	1	3	45	0.00	29.561 
03:40	23.0	23.0	23.0	92	21.0	1	4	90	0.00	29.561 
03:45	23.0	23.0	23.0	92	21.0	2	7	112	0.00	29.565 
03:50	23.0	23.0	23.0	92	21.0	1	4	45	0.00	29.565 
03:55	22.9	22.9	22.9	92	20.9	0	2	315	0.00	29.565 
04:00	22.7	22.7	22.7	92	20.7	1	6	68	0.00	29.571 
04:05	22.5	22.5	22.5	92	20.5	1	3	135	0.00	29.571 
04:10	22.2	22.2	22.2	92	20.2	2	8	68	0.00	29.571 
04:15	22.1	22.1	22.1	92	20.1	1	4	68	0.00	29.572 
04:20	22.1	22.1	22.1	92	20.1	0	2	90	0.00	29.572 
04:25	21.9	21.9	21.9	92	19.9	1	4	45	0.00	29.572 
04:30	21.8	21.8	21.8	92	19.8	1	3	45	0.00	29.575 
04:35	21.6	21.6	21.6	92	19.6	1	3	45	0.00	29.575 
04:40	21.4	21.4	21.4	92	19.4	1	5	90	0.00	29.575 
04:45	21.3	21.3	21.3	92	19.3	1	5	112	0.00	29.591 
04:50	21.1	21.1	21.1	92	19.1	2	4	22	0.00	29.591 
04:55	21.1	21.1	21.1	92	19.1	1	2	22	0.00	29.591 
05:00	21.1	21.1	21.1	92	19.1	1	6	248	0.00	29.618 
05:05	21.1	21.1	21.1	92	19.1	0	2	248	0.00	29.618 
05:10	21.1	21.1	21.1	92	19.1	1	2	112	0.00	29.618 
05:15	21.1	21.1	21.1	92	19.1	0	1	112	0.00	29.624 
05:20	21.3	21.3	21.3	92	19.3	0	1	112	0.00	29.624 
05:25	21.3	21.3	21.3	92	19.3	0	2	112	0.00	29.624 
05:30	21.4	21.4	21.4	92	19.4	0	1	112	0.00	29.637 
05:35	21.4	21.4	21.4	92	19.4	1	4	112	0.00	29.637 
05:40	21.4	21.4	21.4	92	19.4	0	3	112	0.00	29.637 
05:45	21.6	21.6	21.6	92	19.6	0	1	225	0.00	29.641 
05:50	21.6	21.6	21.6	92	19.6	1	3	158	0.00	29.641 
05:55	21.6	21.6	21.6	92	19.6	0	2	158	0.00	29.641 
06:00	21.4	21.4	21.4	92	19.4	0	2	158	0.00	29.654 
06:05	21.4	21.4	21.4	92	19.4	0	1	158	0.00	29.654 
06:10	21.4	21.4	21.4	92	19.4	0	1	158	0.00	29.654 
06:15	21.6	21.6	21.6	92	19.6	0	3	158	0.00	29.667 
06:20	21.6	21.6	21.6	92	19.6	0	3	135	0.00	29.667 
06:25	21.6	21.6	21.6	92	19.6	0	1	135	0.00	29.667 
06:30	21.6	21.6	21.6	92	19.6	1	3	135	0.00	29.679 
06:35	21.6	21.6	21.6	92	19.6	0	2	135	0.00	29.679 
06:40	21.6	21.6	21.6	92	19.6	1	2	135	0.00	29.679 
06:45	21.6	21.6	21.6	92	19.6	1	2	135	0.00	29.690 
06:50	21.4	21.4	21.4	92	19.4	1	3	135	0.00	29.690 
06:55	21.6	21.6	21.6	92	19.6	1	2	135	0.00	29.690 
07:00	21.9	21.9	21.9	92	19.9	1	3	270	0.00	29.695 
07:05	22.5	22.5	22.5	93	20.8	2	4	248	0.00	29.695 
07:10	23.3	23.3	23.3	93	21.6	2	5	248	0.00	29.695 
07:15	23.6	23.6	23.6	93	21.9	3	6	248	0.00	29.697 
07:20	23.9	23.9	23.9	93	22.2	2	6	248	0.00	29.697 
07:25	24.1	24.1	24.1	93	22.4	1	4	225	0.00	29.697 
07:30	24.1	24.1	24.1	93	22.4	1	4	225	0.00	29.711 
07:35	24.2	24.2	24.2	93	22.5	2	5	248	0.00	29.711 
07:40	24.2	24.2	24.2	93	22.5	2	4	248	0.00	29.711 
07:45	24.2	24.2	24.2	93	22.5	1	5	248	0.00	29.727 
07:50	24.1	24.1	24.1	93	22.4	3	6	248	0.00	29.727 
07:55	24.1	24.1	24.1	92	22.1	2	5	248	0.00	29.727 
08:00	23.9	23.9	23.9	92	21.9	2	5	248	0.00	29.740 
08:05	23.8	23.8	23.8	92	21.8	0	3	248	0.00	29.740 
08:10	23.3	23.3	23.3	92	21.3	1	4	248	0.00	29.740 
08:15	22.9	22.9	22.9	92	20.9	0	1	270	0.00	29.747 
08:20	22.5	22.5	22.5	92	20.5	0	1	270	0.00	29.747 
08:25	22.2	22.2	22.2	92	20.2	0	1	270	0.00	29.747 
08:30	22.1	22.1	22.1	92	20.1	0	0	---	0.00	29.748 
08:35	21.9	21.9	21.9	92	19.9	0	1	270	0.00	29.748 
08:40	21.8	21.8	21.8	92	19.8	0	0	---	0.00	29.748 
08:45	21.8	21.8	21.8	92	19.8	0	0	---	0.00	29.759 
08:50	21.6	21.6	21.6	92	19.6	0	1	270	0.00	29.759 
08:55	21.3	21.3	21.3	92	19.3	0	2	270	0.00	29.759 
09:00	21.1	21.1	21.1	91	18.9	0	1	270	0.00	29.780 
09:05	21.0	21.0	21.0	91	18.8	0	3	270	0.00	29.780 
09:10	20.8	20.8	20.8	91	18.6	0	1	270	0.00	29.780 
09:15	20.6	20.6	20.6	91	18.4	0	1	270	0.00	29.793 
09:20	20.5	20.5	20.5	91	18.3	0	2	270	0.00	29.793 
09:25	20.5	20.5	20.5	91	18.3	0	1	292	0.00	29.793 
09:30	20.5	20.5	20.5	91	18.3	0	1	292	0.00	29.799 
09:35	20.6	20.6	20.6	91	18.4	0	1	292	0.00	29.799 
09:40	20.6	20.6	20.6	91	18.4	0	1	292	0.00	29.799 
09:45	20.8	20.8	20.8	91	18.6	0	1	292	0.00	29.820 
09:50	20.8	20.8	20.8	91	18.6	1	4	338	0.00	29.820 
09:55	20.8	20.8	20.8	91	18.6	0	2	338	0.00	29.820 
10:00	20.6	20.6	20.6	91	18.4	0	2	338	0.00	29.836 
10:05	20.6	20.6	20.6	91	18.4	0	3	270	0.00	29.836 
10:10	20.6	20.6	20.6	91	18.4	0	2	270	0.00	29.836 
10:15	20.6	20.6	20.6	91	18.4	0	1	338	0.00	29.844 
10:20	20.8	20.8	20.8	91	18.6	0	2	338	0.00	29.844 
10:25	20.8	20.8	20.8	91	18.6	0	2	338	0.00	29.844 
10:30	21.0	21.0	21.0	91	18.8	0	2	338	0.00	29.860 
10:35	21.0	21.0	21.0	91	18.8	1	4	270	0.00	29.860 
10:40	21.0	21.0	21.0	91	18.8	0	2	22	0.00	29.860 
10:45	21.0	21.0	21.0	91	18.8	1	2	270	0.00	29.879 
10:50	20.8	20.8	20.8	91	18.6	1	3	270	0.00	29.879 
10:55	21.0	21.0	21.0	91	18.8	1	3	292	0.00	29.879 
11:00	21.1	21.1	21.1	91	18.9	1	3	292	0.00	29.899 
11:05	21.3	21.3	21.3	91	19.1	1	5	292	0.00	29.899 
11:10	21.4	21.4	21.4	91	19.2	1	3	338	0.00	29.899 
11:15	21.6	21.6	21.6	91	19.4	1	6	270	0.00	29.916 
11:20	21.6	21.6	21.6	90	19.1	2	5	270	0.00	29.916 
11:25	21.6	21.6	21.6	90	19.1	1	4	338	0.00	29.916 
11:30	21.8	21.8	21.8	91	19.6	1	4	270	0.00	29.935 
11:35	21.9	21.9	21.9	90	19.4	2	5	338	0.00	29.935 
11:40	21.9	21.9	21.9	90	19.4	2	5	338	0.00	29.935 
11:45	22.1	22.1	22.1	90	19.6	1	4	315	0.00	29.951 
11:50	22.2	22.2	22.2	90	19.7	2	4	270	0.00	29.951 
11:55	22.4	22.4	22.4	90	19.9	2	7	315	0.00	29.951 
12:00	22.7	22.7	22.7	90	20.2	2	4	315	0.00	29.966 
12:05	23.0	23.0	23.0	90	20.5	1	6	315	0.00	29.966 
12:10	23.3	23.3	23.3	90	20.8	2	4	292	0.00	29.966 
12:15	23.3	23.3	23.3	90	20.8	2	4	292	0.00	29.978 
12:20	23.5	23.5	23.5	90	21.0	2	5	270	0.00	29.978 
12:25	23.3	23.3	23.3	90	20.8	2	7	315	0.00	29.978 
12:30	22.7	22.7	22.7	89	20.0	3	7	292	0.00	29.992 
12:35	21.8	21.8	21.8	89	19.1	3	6	315	0.00	29.992 
12:40	21.4	21.4	21.4	90	18.9	3	6	270	0.00	29.992 
12:45	21.3	21.3	21.3	90	18.8	2	5	315	0.00	30.000 
12:50	21.6	21.6	21.6	90	19.1	2	4	270	0.00	30.000 
12:55	21.4	21.4	21.4	90	18.9	3	6	315	0.00	30.000 
13:00	21.4	21.4	21.4	89	18.7	3	5	292	0.00	30.015 
13:05	21.6	21.6	21.6	89	18.9	3	7	270	0.00	30.015 
13:10	21.8	21.8	21.8	89	19.1	3	5	270	0.00	30.015 
13:15	21.8	21.8	21.8	89	19.1	3	10	338	0.00	30.030 
13:20	21.6	21.6	21.6	88	18.6	3	6	292	0.00	30.030 
13:25	21.8	21.8	21.8	88	18.8	3	7	270	0.00	30.030 
13:30	21.9	21.9	21.9	88	18.9	3	6	270	0.00	30.045 
13:35	22.1	22.1	22.1	88	19.1	3	6	270	0.00	30.045 
13:40	22.2	22.2	22.2	88	19.2	2	6	315	0.00	30.045 
13:45	22.2	22.2	22.2	88	19.2	3	6	270	0.00	30.060 
13:50	22.1	22.1	22.1	87	18.8	2	7	315	0.00	30.060 
13:55	22.1	22.1	22.1	87	18.8	3	6	338	0.00	30.060 
14:00	21.9	21.9	21.9	86	18.4	3	6	315	0.00	30.073 
14:05	21.6	16.1	21.6	85	17.8	4	10	270	0.00	30.073 
14:10	21.4	21.4	21.4	85	17.6	3	9	270	0.00	30.073 
14:15	21.6	21.6	21.6	85	17.8	3	7	315	0.00	30.088 
14:20	21.9	21.9	21.9	85	18.1	2	4	315	0.00	30.088 
14:25	22.1	22.1	22.1	84	18.0	3	7	292	0.00	30.088 
14:30	22.1	22.1	22.1	84	18.0	2	6	270	0.00	30.101 
14:35	22.2	22.2	22.2	84	18.1	2	7	270	0.00	30.101 
14:40	22.2	22.2	22.2	84	18.1	2	6	338	0.00	30.101 
14:45	22.1	22.1	22.1	84	18.0	3	9	292	0.00	30.121 
14:50	21.9	21.9	21.9	84	17.8	3	9	270	0.00	30.121 
14:55	21.8	21.8	21.8	84	17.7	2	6	270	0.00	30.121 
15:00	21.9	21.9	21.9	83	17.5	2	5	315	0.00	30.136 
15:05	22.1	22.1	22.1	83	17.7	2	5	270	0.00	30.136 
15:10	22.1	22.1	22.1	83	17.7	2	4	338	0.00	30.136 
15:15	22.1	22.1	22.1	82	17.5	2	5	315	0.00	30.145 
15:20	22.1	22.1	22.1	82	17.5	2	5	270	0.00	30.145 
15:25	22.2	22.2	22.2	82	17.6	2	4	270	0.00	30.145 
15:30	22.1	22.1	22.1	81	17.2	2	6	315	0.00	30.162 
15:35	22.1	22.1	22.1	81	17.2	2	5	338	0.00	30.162 
15:40	22.1	22.1	22.1	82	17.5	2	4	315	0.00	30.162 
15:45	22.2	22.2	22.2	82	17.6	1	2	315	0.00	30.182 
15:50	22.2	22.2	22.2	82	17.6	1	5	338	0.00	30.182 
15:55	22.2	22.2	22.2	82	17.6	1	4	292	0.00	30.182 
16:00	22.4	22.4	22.4	82	17.8	0	3	0	0.00	30.189 
16:05	22.4	22.4	22.4	82	17.8	2	5	270	0.00	30.189 
16:10	22.1	22.1	22.1	81	17.2	2	4	315	0.00	30.189 
16:15	21.9	21.9	21.9	81	17.0	2	5	248	0.00	30.205 
16:20	21.9	21.9	21.9	81	17.0	1	4	315	0.00	30.205 
16:25	21.8	21.8	21.8	81	16.9	2	4	315	0.00	30.205 
16:30	21.8	21.8	21.8	81	16.9	2	5	270	0.00	30.219 
16:35	21.6	21.6	21.6	81	16.7	2	5	338	0.00	30.219 
16:40	21.6	21.6	21.6	81	16.7	2	5	292	0.00	30.219 
16:45	21.4	21.4	21.4	81	16.5	1	5	315	0.00	30.235 
16:50	21.4	21.4	21.4	81	16.5	2	5	315	0.00	30.235 
16:55	21.3	21.3	21.3	81	16.4	2	5	270	0.00	30.235 
17:00	21.3	21.3	21.3	81	16.4	1	4	292	0.00	30.245 
17:05	21.1	21.1	21.1	80	15.9	2	5	270	0.00	30.245 
17:10	21.1	21.1	21.1	81	16.2	1	4	270	0.00	30.245 
17:15	21.1	21.1	21.1	81	16.2	1	4	270	0.00	30.253 
17:20	21.1	21.1	21.1	81	16.2	2	6	270	0.00	30.253 
17:25	21.0	21.0	21.0	81	16.1	1	5	270	0.00	30.253 
17:30	21.0	21.0	21.0	81	16.1	1	4	315	0.00	30.268 
17:35	20.8	20.8	20.8	81	15.9	1	3	315	0.00	30.268 
17:40	20.6	20.6	20.6	81	15.7	1	4	292	0.00	30.268 
17:45	20.5	20.5	20.5	81	15.6	1	3	315	0.00	30.281 
17:50	20.5	20.5	20.5	81	15.6	1	2	315	0.00	30.281 
17:55	20.5	20.5	20.5	81	15.6	1	3	315	0.00	30.281 
18:00	20.3	20.3	20.3	81	15.4	2	4	315	0.00	30.298 
18:05	20.2	20.2	20.2	81	15.3	1	3	292	0.00	30.298 
18:10	20.2	20.2	20.2	81	15.3	1	2	315	0.00	30.298 
18:15	20.0	20.0	20.0	81	15.1	0	2	292	0.00	30.313 
18:20	20.0	20.0	20.0	81	15.1	1	4	292	0.00	30.313 
18:25	19.9	19.9	19.9	81	15.0	1	2	270	0.00	30.313 
18:30	19.9	19.9	19.9	81	15.0	1	3	270	0.00	30.324 
18:35	19.7	19.7	19.7	81	14.8	1	3	270	0.00	30.324 
18:40	19.7	19.7	19.7	81	14.8	0	2	248	0.00	30.324 
18:45	19.7	19.7	19.7	81	14.8	1	3	248	0.00	30.335 
18:50	19.7	19.7	19.7	81	14.8	0	2	292	0.00	30.335 
18:55	19.7	19.7	19.7	81	14.8	1	3	292	0.00	30.335 
19:00	19.5	19.5	19.5	81	14.6	1	2	292	0.00	30.346 
19:05	19.5	19.5	19.5	81	14.6	0	2	292	0.00	30.346 
19:10	19.5	19.5	19.5	81	14.6	0	2	292	0.00	30.346 
19:15	19.5	19.5	19.5	81	14.6	0	2	292	0.00	30.357 
19:20	19.5	19.5	19.5	81	14.6	0	1	292	0.00	30.357 
19:25	19.5	19.5	19.5	81	14.6	0	1	292	0.00	30.357 
19:30	19.5	19.5	19.5	81	14.6	0	1	292	0.00	30.360 
19:35	19.5	19.5	19.5	81	14.6	0	1	292	0.00	30.360 
19:40	19.5	19.5	19.5	81	14.6	0	1	292	0.00	30.360 
19:45	19.4	19.4	19.4	81	14.5	0	0	---	0.00	30.373 
19:50	19.4	19.4	19.4	81	14.5	0	1	292	0.00	30.373 
19:55	19.2	19.2	19.2	81	14.3	0	0	---	0.00	30.373 
20:00	19.2	19.2	19.2	81	14.3	0	1	292	0.00	30.380 
20:05	19.2	19.2	19.2	81	14.3	0	0	---	0.00	30.380 
20:10	19.1	19.1	19.1	82	14.5	0	0	---	0.00	30.380 
20:15	19.1	19.1	19.1	82	14.5	0	1	292	0.00	30.393 
20:20	18.9	18.9	18.9	82	14.3	0	0	---	0.00	30.393 
20:25	18.9	18.9	18.9	83	14.6	0	0	---	0.00	30.393 
20:30	18.8	18.8	18.8	83	14.5	0	0	---	0.00	30.394 
20:35	18.9	18.9	18.9	83	14.6	0	0	---	0.00	30.394 
20:40	18.9	18.9	18.9	83	14.6	0	0	---	0.00	30.394 
20:45	18.9	18.9	18.9	82	14.3	0	0	---	0.00	30.399 
20:50	18.9	18.9	18.9	83	14.6	0	0	---	0.00	30.399 
20:55	18.9	18.9	18.9	83	14.6	0	0	---	0.00	30.399 
21:00	18.8	18.8	18.8	83	14.5	0	0	---	0.00	30.407 
21:05	18.8	18.8	18.8	83	14.5	0	1	292	0.00	30.407 
21:10	18.6	18.6	18.6	83	14.3	0	1	292	0.00	30.407 
21:15	18.6	18.6	18.6	83	14.3	0	1	292	0.00	30.411 
21:20	18.4	18.4	18.4	83	14.1	0	0	---	0.00	30.411 
21:25	18.4	18.4	18.4	83	14.1	0	0	---	0.00	30.411 
21:30	18.3	18.3	18.3	83	14.0	0	1	292	0.00	30.418 
21:35	18.1	18.1	18.1	83	13.8	0	0	---	0.00	30.418 
21:40	18.0	18.0	18.0	83	13.7	0	1	292	0.00	30.418 
21:45	17.8	17.8	17.8	83	13.5	0	0	---	0.00	30.422 
21:50	17.8	17.8	17.8	83	13.5	0	0	---	0.00	30.422 
21:55	17.7	17.7	17.7	83	13.4	0	1	292	0.00	30.422 
22:00	17.5	17.5	17.5	83	13.2	0	1	292	0.00	30.426 
22:05	17.5	17.5	17.5	83	13.2	0	1	292	0.00	30.426 
22:10	17.3	17.3	17.3	83	13.0	0	1	292	0.00	30.426 
22:15	17.2	17.2	17.2	83	12.9	0	0	---	0.00	30.433 
22:20	17.0	17.0	17.0	83	12.7	0	1	292	0.00	30.433 
22:25	16.9	16.9	16.9	83	12.6	0	1	292	0.00	30.433 
22:30	16.7	16.7	16.7	83	12.5	0	1	292	0.00	30.442 
22:35	16.7	16.7	16.7	83	12.5	0	1	292	0.00	30.442 
22:40	16.5	16.5	16.5	83	12.3	0	1	292	0.00	30.442 
22:45	16.5	16.5	16.5	83	12.3	0	1	292	0.00	30.443 
22:50	16.5	16.5	16.5	83	12.3	0	2	292	0.00	30.443 
22:55	16.4	16.4	16.4	83	12.2	0	1	292	0.00	30.443 
23:00	16.4	16.4	16.4	83	12.2	0	1	292	0.00	30.451 
23:05	16.4	16.4	16.4	83	12.2	0	2	292	0.00	30.451 
23:10	16.2	16.2	16.2	83	12.0	0	2	292	0.00	30.451 
23:15	16.1	16.1	16.1	83	11.9	0	1	292	0.00	30.450 
23:20	15.9	15.9	15.9	83	11.7	0	1	292	0.00	30.450 
23:25	15.6	15.6	15.6	83	11.4	0	1	292	0.00	30.450 
23:30	15.2	15.2	15.2	83	11.0	0	0	---	0.00	30.448 
23:35	14.8	14.8	14.8	83	10.6	0	0	---	0.00	30.448 
23:40	14.6	14.6	14.6	83	10.4	0	1	292	0.00	30.448 
23:45	14.4	14.4	14.4	84	10.5	0	0	---	0.00	30.455 
23:50	14.4	14.4	14.4	84	10.5	0	0	---	0.00	30.455 
23:55	14.3	14.3	14.3	84	10.4	0	0	---	0.00	30.455 

CoCoRaHS
IN-AL-39
A2 Web Hosting
Creative Commons License
GoDaddy
search engine by freefind advanced

loaded 2018-11-21 01:25:33 • last modified 2010-11-18 10:43:29
Privacy PolicyDisclaimer
• wx.awcolley.com is powered by PmWiki v.2002016 •
• all content (unless otherwise noted) © 2018 A W Colley